This is the latest recevied weather packets stored in our database for station/object IZ2WMD-13. If no packets are shown the sender has not sent any weather packets the latest 10 day(s).
| Time | Temp. | Humidity | Pressure | Rain* | Wind** | Luminosity | Snow |
|---|---|---|---|---|---|---|---|
| 1777860755 | 12.22° C | 70% | 1015.8 hPa | - | - | - | - |
| 1777858345 | 12.78° C | 66% | 1015.5 hPa | - | - | - | - |
| 1777857140 | 13.33° C | 63% | 1015.5 hPa | - | - | - | - |
| 1777854731 | 15.56° C | 50% | 1015.6 hPa | - | - | - | - |
| 1777853526 | 15.56° C | 50% | 1015.8 hPa | - | - | - | - |
| 1777852321 | 16.11° C | 45% | 1015.9 hPa | - | - | - | - |
| 1777851116 | 16.11° C | 48% | 1016 hPa | - | - | - | - |
| 1777849911 | 15.56° C | 51% | 1016.1 hPa | - | - | - | - |
| 1777848706 | 16.11° C | 51% | 1016.2 hPa | - | - | - | - |
| 1777845091 | 17.22° C | 41% | 1015.8 hPa | - | - | - | - |
| 1777843887 | 17.22° C | 42% | 1015.9 hPa | - | - | - | - |
| 1777842682 | 17.22° C | 44% | 1015.7 hPa | - | - | - | - |
| 1777841477 | 17.78° C | 41% | 1015.6 hPa | - | - | - | - |
| 1777839067 | 17.22° C | 49% | 1015.6 hPa | - | - | - | - |
| 1777837862 | 17.78° C | 45% | 1015.1 hPa | - | - | - | - |
| 1777836658 | 18.33° C | 50% | 1015.1 hPa | - | - | - | - |
| 1777835453 | 18.89° C | 46% | 1014.9 hPa | - | - | - | - |
| 1777834248 | 19.44° C | 43% | 1014.7 hPa | - | - | - | - |
| 1777833043 | 20° C | 37% | 1014.6 hPa | - | - | - | - |
| 1777831838 | 20.56° C | 35% | 1014.4 hPa | - | - | - | - |
| 1777829428 | 21.67° C | 33% | 1014.2 hPa | - | - | - | - |
| 1777828223 | 22.22° C | 31% | 1014.3 hPa | - | - | - | - |
| 1777827019 | 22.22° C | 30% | 1014.3 hPa | - | - | - | - |
| 1777825814 | 22.78° C | 26% | 1014.3 hPa | - | - | - | - |
| 1777824661 | 23.33° C | 28% | 1014.5 hPa | - | - | - | - |
* Rain since midnight (hover to see other rain measurements)
** Current wind speed in m/s (hover to see current wind gust speed)